Data for 08/12/2006

Time Sea-Level Adjusted Pressure Absolute Pressure Temperature Relative Humidity Dew Point   
(mb) (inHg) (mb) (inHg) (C) (F) (%) (C) (F)
00:05 1015 29.97 845 24.95 16.2 61.2 39 2.2 36
00:10 1016 30 845 24.95 16.1 61 39 2.1 35.9
00:15 1016 30 845 24.95 15.9 60.7 39 2.1 35.7
00:20 1016 30 845 24.95 16 60.7 38 1.7 35
00:25 1016 30 845 24.95 16 60.7 39 2.1 35.8
00:30 1016 30 845 24.95 16.2 61.1 35 0.8 33.5
00:35 1016 30 845 24.95 16.4 61.5 35 1 33.8
00:40 1016 30 845 24.95 16.5 61.7 34 0.6 33.1
00:45 1016 30 845 24.95 16.7 62.1 33 0.5 32.9
00:50 1016 30 845 24.95 16.6 62 34 0.6 33.1
00:55 1016 30 845 24.95 16.4 61.5 35 0.9 33.5
01:00 1016 30 845 24.95 16 60.8 35 0.8 33.4
01:05 1016 30 846 24.98 16 60.8 34 0.3 32.5
01:10 1016 30 846 24.98 15.9 60.6 35 0.6 33
01:15 1016 30 846 24.98 16 60.8 34 0 32.1
01:20 1017 30.03 846 24.98 16.1 61 33 0.1 32.2
01:25 1017 30.03 846 24.98 16 60.7 35 0.4 32.8
01:30 1017 30.03 846 24.98 15.7 60.2 34 -0.2 31.7
01:35 1017 30.03 846 24.98 15.6 60.1 33 -0.4 31.2
01:40 1017 30.03 846 24.98 15.8 60.4 32 -0.7 30.8
01:45 1017 30.03 846 24.98 15.8 60.5 33 -0.4 31.3
01:50 1017 30.03 846 24.98 15.5 59.9 33 -0.5 31.1
01:55 1017 30.03 846 24.98 15.5 59.9 33 -0.6 31
02:00 1017 30.03 846 24.98 15.4 59.6 33 -0.6 30.9
02:05 1017 30.03 846 24.98 15.1 59.2 34 -0.4 31.2
02:10 1017 30.03 846 24.98 15 58.9 34 -0.7 30.7
02:15 1017 30.03 846 24.98 15.1 59.1 34 -0.5 31.1
02:20 1017 30.03 846 24.98 15.1 59.2 33 -1.1 30
02:25 1017 30.03 846 24.98 15.1 59.2 33 -1 30.2
02:30 1017 30.03 846 24.98 14.9 58.9 33 -1.1 30
02:35 1017 30.03 846 24.98 14.9 58.9 33 -1.1 30.1
02:40 1017 30.03 846 24.98 14.7 58.5 34 -0.8 30.5
02:45 1017 30.03 846 24.98 14.7 58.4 33 -1.2 29.8
02:50 1017 30.03 846 24.98 14.7 58.4 34 -1.1 30.1
02:55 1017 30.03 846 24.98 14.7 58.4 33 -1.2 29.9
03:00 1017 30.03 846 24.98 14.6 58.2 33 -1.3 29.6
03:05 1017 30.03 846 24.98 14.6 58.2 34 -1.1 30
03:10 1017 30.03 846 24.98 14.4 57.9 34 -1 30.1
03:15 1017 30.03 846 24.98 14.3 57.7 40 0.9 33.6
03:20 1017 30.03 846 24.98 14.2 57.5 35 -1 30.2
03:25 1017 30.03 846 24.98 14.2 57.5 38 0.1 32.1
03:30 1017 30.03 846 24.98 14.3 57.8 34 -1.3 29.6
03:35 1017 30.03 846 24.98 14.4 57.9 34 -1.3 29.6
03:40 1017 30.03 846 24.98 14.6 58.2 33 -1.2 29.8
03:45 1017 30.03 846 24.98 14.5 58 33 -1.7 29
03:50 1017 30.03 846 24.98 14.3 57.8 34 -1.2 29.8
03:55 1017 30.03 846 24.98 14.2 57.5 33 -1.8 28.7
04:00 1017 30.03 846 24.98 14.2 57.6 33 -1.8 28.7
04:05 1017 30.03 846 24.98 14.3 57.8 33 -1.7 28.9
04:10 1017 30.03 846 24.98 14.4 57.8 33 -1.5 29.3
04:15 1017 30.03 846 24.98 13.7 56.7 38 -0.3 31.5
04:20 1017 30.03 846 24.98 13.4 56.1 36 -1.4 29.5
04:25 1017 30.03 846 24.98 13.1 55.6 48 2.3 36.2
04:30 1017 30.03 846 24.98 12.2 53.9 46 1 33.8
04:35 1017 30.03 846 24.98 12.2 53.9 41 -0.5 31.1
04:40 1017 30.03 846 24.98 12.6 54.7 38 -1.2 29.9
04:45 1017 30.03 846 24.98 12.6 54.7 39 -0.8 30.6
04:50 1017 30.03 846 24.98 12.5 54.5 42 -0.1 31.8
04:55 1017 30.03 846 24.98 12 53.7 49 1.8 35.2
05:00 1017 30.03 847 25.01 12.1 53.9 43 -0.2 31.7
05:05 1018 30.06 847 25.01 12.4 54.3 41 -0.6 30.9
05:10 1018 30.06 847 25.01 12.4 54.3 42 -0.2 31.6
05:15 1017 30.03 847 25.01 12.5 54.4 40 -0.6 30.9
05:20 1017 30.03 847 25.01 12.1 53.8 40 -1 30.2
05:25 1018 30.06 847 25.01 11.9 53.5 41 -0.8 30.5
05:30 1018 30.06 847 25.01 11.8 53.2 40 -1.2 29.9
05:35 1018 30.06 847 25.01 12 53.6 39 -1.4 29.6
05:40 1018 30.06 847 25.01 12.2 54 39 -1.2 29.8
05:45 1018 30.06 847 25.01 12.3 54.1 39 -1.2 29.9
05:50 1018 30.06 847 25.01 12.4 54.4 41 -0.5 31
05:55 1018 30.06 847 25.01 12.6 54.8 41 -0.3 31.5
06:00 1018 30.06 847 25.01 12.4 54.2 40 -0.7 30.8
06:05 1018 30.06 847 25.01 12.5 54.5 40 -0.5 31.1
06:10 1018 30.06 847 25.01 12.8 55 37 -1.4 29.4
06:15 1018 30.06 848 25.04 13.1 55.6 35 -1.9 28.6
06:20 1019 30.09 848 25.04 13.1 55.5 37 -1.2 29.9
06:25 1019 30.09 848 25.04 12.9 55.2 36 -1.8 28.7
06:30 1019 30.09 848 25.04 13 55.3 36 -1.6 29.2
06:35 1018 30.06 848 25.04 12.9 55.3 38 -0.9 30.4
06:40 1018 30.06 848 25.04 12.6 54.8 46 1.5 34.7
06:45 1019 30.09 848 25.04 12.3 54.2 44 0.5 32.8
06:50 1019 30.09 848 25.04 12.2 53.9 42 -0.3 31.5
06:55 1018 30.06 848 25.04 12.3 54.1 43 0.1 32.2
07:00 1018 30.06 847 25.01 12.6 54.7 41 -0.3 31.4
07:05 1018 30.06 847 25.01 12.5 54.4 42 -0 31.9
07:10 1018 30.06 847 25.01 12.3 54.2 41 -0.4 31.2
07:15 1018 30.06 848 25.04 12.4 54.4 41 -0.4 31.3
07:20 1018 30.06 848 25.04 12.5 54.5 41 -0.3 31.4
07:25 1018 30.06 848 25.04 12.5 54.5 41 -0.2 31.6
07:30 1018 30.06 847 25.01 12.6 54.7 40 -0.6 31
07:35 1018 30.06 847 25.01 12.9 55.2 39 -0.7 30.7
07:40 1018 30.06 848 25.04 13 55.4 39 -0.5 31.1
07:45 1018 30.06 848 25.04 13.2 55.8 45 1.5 34.7
07:50 1018 30.06 847 25.01 13.3 55.9 40 -0.1 31.9
07:55 1018 30.06 847 25.01 13.2 55.7 39 -0.5 31
08:00 1018 30.06 847 25.01 13.4 56 38 -0.4 31.2
08:05 1018 30.06 847 25.01 13.6 56.4 39 -0.1 31.7
08:10 1018 30.06 847 25.01 13.9 57 38 -0.1 31.9
08:15 1018 30.06 847 25.01 14.3 57.7 35 -1 30.2
08:20 1018 30.06 847 25.01 14.5 58 36 -0.2 31.6
08:25 1018 30.06 847 25.01 14.6 58.2 37 0.1 32.1
08:30 1018 30.06 847 25.01 14.9 58.7 35 -0.2 31.7
08:35 1018 30.06 847 25.01 15 58.9 39 1.1 33.9
08:40 1018 30.06 848 25.04 15 59 37 0.7 33.2
08:45 1019 30.09 848 25.04 15.2 59.3 38 1 33.8
08:50 1018 30.06 848 25.04 15.4 59.6 39 1.4 34.6
08:55 1018 30.06 847 25.01 15.7 60.2 37 1.1 33.9
09:00 1018 30.06 847 25.01 15.8 60.4 36 0.8 33.4
09:05 1018 30.06 847 25.01 15.3 59.6 40 1.9 35.5
09:10 1018 30.06 847 25.01 15 59.1 40 1.5 34.7
09:15 1018 30.06 847 25.01 15.3 59.6 38 1 33.9
09:20 1018 30.06 847 25.01 15.7 60.3 38 1.7 35
09:25 1018 30.06 847 25.01 16.1 61.1 37 1.4 34.6
09:30 1018 30.06 847 25.01 16.9 62.3 33 0.7 33.3
09:35 1018 30.06 847 25.01 17.1 62.7 33 0.6 33
09:40 1018 30.06 847 25.01 16.2 61.1 37 1.5 34.8
09:45 1018 30.06 848 25.04 16.1 61 37 1.5 34.7
09:50 1018 30.06 848 25.04 16.4 61.4 38 2.1 35.9
09:55 1018 30.06 848 25.04 16.5 61.6 42 3.5 38.3
10:00 1018 30.06 848 25.04 15.9 60.7 44 3.9 39.1
10:05 1018 30.06 847 25.01 15.6 60.1 44 3.5 38.3
10:10 1018 30.06 848 25.04 16.4 61.4 40 3 37.4
10:15 1019 30.09 848 25.04 16.4 61.4 38 2 35.5
10:20 1018 30.06 848 25.04 16.4 61.4 36 1.2 34.2
10:25 1018 30.06 847 25.01 15.8 60.5 37 1.4 34.6
10:30 1018 30.06 847 25.01 16.1 61 35 0.8 33.4
10:35 1018 30.06 847 25.01 15.8 60.5 38 1.6 34.9
10:40 1018 30.06 847 25.01 15.8 60.4 38 1.8 35.2
10:45 1018 30.06 847 25.01 16.2 61.2 38 2.1 35.8
10:50 1018 30.06 848 25.04 16.1 61 39 2.3 36.1
10:55 1018 30.06 848 25.04 15.9 60.6 40 2.3 36.1
11:00 1018 30.06 847 25.01 15.9 60.6 39 2.2 36
11:05 1018 30.06 848 25.04 16.1 61 38 1.9 35.4
11:10 1018 30.06 847 25.01 16.2 61.1 35 0.9 33.7
11:15 1018 30.06 848 25.04 16.2 61.1 38 1.9 35.4
11:20 1018 30.06 847 25.01 16.9 62.4 38 2.7 36.9
11:25 1018 30.06 847 25.01 17.4 63.3 37 2.8 37
11:30 1018 30.06 847 25.01 17.4 63.3 35 1.9 35.4
11:35 1018 30.06 847 25.01 17 62.7 39 3.1 37.6
11:40 1018 30.06 847 25.01 16.7 62 40 3.1 37.6
11:45 1018 30.06 847 25.01 16.6 61.9 41 3.4 38.1
11:50 1018 30.06 847 25.01 16.6 61.9 38 2.5 36.5
11:55 1018 30.06 847 25.01 16.4 61.6 39 2.5 36.5
12:00 1018 30.06 847 25.01 16.1 60.9 38 2 35.5
12:05 1018 30.06 848 25.04 15.6 60.1 40 2.2 36
12:10 1018 30.06 848 25.04 15.2 59.3 40 1.8 35.3
12:15 1018 30.06 848 25.04 15.1 59.1 40 1.8 35.2
12:20 1018 30.06 848 25.04 14.9 58.9 43 2.6 36.8
12:25 1018 30.06 847 25.01 14.6 58.3 47 3.5 38.3
12:30 1018 30.06 847 25.01 14.7 58.4 49 4 39.2
12:35 1018 30.06 847 25.01 14.7 58.5 48 3.9 39
12:40 1018 30.06 847 25.01 14.5 58.2 45 2.9 37.3
12:45 1018 30.06 847 25.01 14.3 57.7 47 3.1 37.6
12:50 1018 30.06 848 25.04 13.9 57.1 44 2.1 35.7
12:55 1018 30.06 847 25.01 13.8 56.9 57 5.5 41.8
13:00 1018 30.06 847 25.01 13.5 56.3 54 4.5 40.2
13:05 1018 30.06 847 25.01 13.2 55.7 60 5.6 42.2
13:10 1018 30.06 847 25.01 12.7 54.8 67 6.7 44.1
13:15 1018 30.06 847 25.01 12.8 55.1 68 7.2 44.9
13:20 1018 30.06 847 25.01 12.8 55 64 6.2 43.2
13:25 1018 30.06 847 25.01 12.7 54.9 61 5.4 41.7
13:30 1018 30.06 848 25.04 13 55.5 62 6 42.9
13:35 1018 30.06 848 25.04 13.2 55.7 68 7.4 45.2
13:40 1018 30.06 847 25.01 13.1 55.6 74 8.5 47.4
13:45 1018 30.06 847 25.01 12.5 54.5 72 7.6 45.7
13:50 1018 30.06 848 25.04 12.7 54.8 69 7.2 45
13:55 1018 30.06 848 25.04 13.1 55.5 71 8 46.4
14:00 1018 30.06 847 25.01 13 55.4 77 9.2 48.5
14:05 1018 30.06 848 25.04 12.6 54.7 72 7.8 46
14:10 1019 30.09 848 25.04 12.8 55.1 64 6.3 43.3
14:15 1019 30.09 848 25.04 13.6 56.5 64 7 44.5
14:20 1019 30.09 848 25.04 13.2 55.8 76 9.1 48.4
14:25 1018 30.06 848 25.04 12.7 54.8 76 8.6 47.5
14:30 1018 30.06 847 25.01 12.5 54.6 72 7.6 45.7
14:35 1018 30.06 848 25.04 12.8 55 69 7.3 45.1
14:40 1019 30.09 848 25.04 13.4 56.1 66 7.3 45.1
14:45 1019 30.09 848 25.04 13.6 56.4 65 7.1 44.8
14:50 1019 30.09 848 25.04 13.8 56.9 63 7 44.6
14:55 1019 30.09 848 25.04 13.8 56.8 63 6.9 44.5
15:00 1019 30.09 848 25.04 13.8 56.9 64 7.2 44.9
15:05 1019 30.09 848 25.04 13.5 56.4 66 7.3 45.2
15:10 1019 30.09 848 25.04 13.2 55.7 67 7.3 45.1
15:15 1019 30.09 848 25.04 13.2 55.7 69 7.7 45.8
15:20 1019 30.09 848 25.04 12.9 55.2 73 8.2 46.7
15:25 1019 30.09 848 25.04 12.9 55.1 75 8.6 47.5
15:30 1019 30.09 848 25.04 13 55.4 70 7.7 45.9
15:35 1019 30.09 848 25.04 13.1 55.5 73 8.5 47.3
15:40 1019 30.09 848 25.04 13.1 55.5 73 8.3 46.9
15:45 1019 30.09 848 25.04 12.8 55.1 71 7.8 46
15:50 1019 30.09 848 25.04 13.1 55.5 70 7.8 46
15:55 1019 30.09 848 25.04 12.8 55 73 8.2 46.7
16:00 1019 30.09 848 25.04 12.8 55 76 8.7 47.6
16:05 1019 30.09 848 25.04 13 55.4 72 8 46.5
16:10 1019 30.09 848 25.04 13.4 56.1 71 8.3 47
16:15 1019 30.09 848 25.04 13.2 55.7 69 7.7 45.9
16:20 1019 30.09 848 25.04 12.8 55 74 8.2 46.8
16:25 1019 30.09 848 25.04 12.6 54.7 71 7.6 45.8
16:30 1019 30.09 848 25.04 12.6 54.7 70 7.3 45.1
16:35 1019 30.09 848 25.04 12.8 55 71 7.6 45.8
16:40 1019 30.09 848 25.04 12.7 54.8 71 7.5 45.6
16:45 1019 30.09 848 25.04 12.5 54.5 72 7.6 45.7
16:50 1019 30.09 848 25.04 12.3 54.2 74 7.9 46.1
16:55 1019 30.09 848 25.04 12.1 53.7 74 7.7 45.8
17:00 1019 30.09 848 25.04 12.3 54.1 74 7.9 46.2
17:05 1019 30.09 848 25.04 12.3 54.2 73 7.7 45.8
17:10 1019 30.09 848 25.04 12.3 54.1 73 7.6 45.7
17:15 1018 30.06 847 25.01 11.8 53.2 79 8.3 47
17:20 1018 30.06 847 25.01 11.5 52.7 76 7.4 45.3
17:25 1018 30.06 847 25.01 11.7 53 80 8.3 47
17:30 1018 30.06 848 25.04 11.4 52.6 80 8 46.5
17:35 1018 30.06 847 25.01 11.6 52.9 76 7.6 45.7
17:40 1018 30.06 847 25.01 11.9 53.4 78 8.2 46.7
17:45 1018 30.06 848 25.04 11.8 53.2 79 8.3 47
17:50 1019 30.09 848 25.04 11.8 53.2 82 8.7 47.7
17:55 1019 30.09 848 25.04 11.6 52.9 82 8.7 47.7
18:00 1019 30.09 848 25.04 11.5 52.8 85 9.2 48.5
18:05 1019 30.09 848 25.04 11.5 52.7 84 9 48.2
18:10 1019 30.09 848 25.04 11.5 52.7 84 9 48.1
18:15 1019 30.09 848 25.04 11.5 52.7 82 8.5 47.3
18:20 1019 30.09 848 25.04 11.5 52.7 82 8.5 47.2
18:25 1019 30.09 848 25.04 11.5 52.7 82 8.5 47.3
18:30 1019 30.09 848 25.04 11.5 52.7 81 8.5 47.2
18:35 1019 30.09 849 25.07 11.5 52.8 82 8.7 47.6
18:40 1020 30.12 849 25.07 11.5 52.7 82 8.6 47.4
18:45 1020 30.12 849 25.07 11.5 52.8 81 8.5 47.3
18:50 1020 30.12 849 25.07 11.6 52.9 81 8.6 47.4
18:55 1020 30.12 849 25.07 11.6 53 80 8.3 47
19:00 1020 30.12 849 25.07 11.8 53.2 80 8.4 47.2
19:05 1020 30.12 849 25.07 11.8 53.2 80 8.4 47.1
19:10 1020 30.12 849 25.07 11.8 53.3 79 8.4 47.1
19:15 1019 30.09 849 25.07 11.9 53.3 81 8.6 47.6
19:20 1019 30.09 848 25.04 11.8 53.2 81 8.6 47.5
19:25 1019 30.09 848 25.04 11.6 52.9 81 8.5 47.3
19:30 1019 30.09 848 25.04 11.6 52.8 80 8.3 46.9
19:35 1019 30.09 848 25.04 11.6 52.8 83 8.7 47.7
19:40 1019 30.09 848 25.04 11.5 52.7 82 8.5 47.3
19:45 1019 30.09 848 25.04 11.6 52.8 82 8.6 47.5
19:50 1019 30.09 848 25.04 11.6 52.9 82 8.7 47.7
19:55 1019 30.09 848 25.04 11.6 52.8 81 8.4 47.1
20:00 1019 30.09 848 25.04 11.6 52.8 81 8.5 47.3
20:05 1019 30.09 848 25.04 11.7 53.1 81 8.6 47.5
20:10 1019 30.09 848 25.04 11.8 53.2 83 8.9 48
20:15 1019 30.09 848 25.04 11.7 53 83 8.9 48
20:20 1019 30.09 848 25.04 11.6 52.9 83 8.8 47.9
20:25 1019 30.09 848 25.04 11.7 53 81 8.5 47.3
20:30 1019 30.09 848 25.04 11.8 53.2 79 8.2 46.8
20:35 1019 30.09 849 25.07 11.9 53.4 79 8.3 46.9
20:40 1019 30.09 848 25.04 11.8 53.3 78 8.2 46.8
20:45 1019 30.09 848 25.04 11.7 53.1 78 8 46.4
20:50 1019 30.09 848 25.04 11.8 53.2 77 8 46.3
20:55 1019 30.09 848 25.04 11.7 53.1 76 7.7 45.9
21:00 1019 30.09 848 25.04 11.7 53.1 76 7.7 45.9
21:05 1019 30.09 848 25.04 11.7 53.1 76 7.6 45.6
21:10 1019 30.09 849 25.07 11.7 53.1 75 7.6 45.6
21:15 1019 30.09 849 25.07 11.7 53.1 75 7.6 45.6
21:20 1020 30.12 849 25.07 11.8 53.2 76 7.7 45.8
21:25 1020 30.12 849 25.07 11.6 52.9 77 7.7 45.9
21:30 1020 30.12 849 25.07 11.6 52.8 78 7.8 46.1
21:35 1020 30.12 849 25.07 11.5 52.7 79 8 46.3
21:40 1020 30.12 849 25.07 11.4 52.5 81 8.2 46.8
21:45 1020 30.12 849 25.07 11.2 52.1 82 8.2 46.8
21:50 1020 30.12 849 25.07 11.1 52 81 8 46.4
21:55 1020 30.12 849 25.07 11.1 52 81 8.1 46.5
22:00 1020 30.12 849 25.07 11.1 51.9 81 7.9 46.1
22:05 1020 30.12 849 25.07 11 51.8 80 7.8 46
22:10 1020 30.12 849 25.07 11 51.8 80 7.7 45.9
22:15 1020 30.12 849 25.07 11 51.9 80 7.8 46
22:20 1020 30.12 849 25.07 11 51.7 80 7.7 45.9
22:25 1020 30.12 849 25.07 10.9 51.7 81 7.8 46.1
22:30 1020 30.12 849 25.07 10.8 51.5 82 7.8 46
22:35 1020 30.12 849 25.07 10.8 51.4 82 7.8 46
22:40 1020 30.12 849 25.07 10.7 51.3 81 7.6 45.6
22:45 1020 30.12 849 25.07 10.7 51.3 81 7.6 45.7
22:50 1020 30.12 849 25.07 10.7 51.3 81 7.5 45.6
22:55 1020 30.12 849 25.07 10.6 51.1 81 7.5 45.6
23:00 1020 30.12 849 25.07 10.5 50.9 81 7.3 45.2
23:05 1020 30.12 849 25.07 10.5 50.9 81 7.4 45.3
23:10 1020 30.12 849 25.07 10.4 50.7 81 7.3 45.2
23:15 1020 30.12 849 25.07 10 49.9 83 7.2 45
23:20 1020 30.12 849 25.07 9.9 49.8 83 7.1 44.8
23:25 1020 30.12 850 25.1 9.8 49.6 83 7.1 44.7
23:30 1020 30.12 850 25.1 9.7 49.4 83 7 44.6
23:35 1020 30.12 850 25.1 9.7 49.4 84 7.1 44.7
23:40 1020 30.12 850 25.1 9.6 49.3 85 7.1 44.8
23:45 1020 30.12 850 25.1 9.5 49.1 85 7.2 44.9
23:50 1021 30.15 850 25.1 9.6 49.2 85 7.1 44.8
23:55 1021 30.15 850 25.1 9.6 49.3 85 7.2 45
24:00 1021 30.15 850 25.1 9.4 48.9 86 7.3 45.1